createdAt,value
2017-09-04T00:01:32.594Z,96527.26
2017-09-04T00:03:58.342Z,96528.06
2017-09-04T00:06:24.116Z,96525.02
2017-09-04T00:08:49.937Z,96525.83
2017-09-04T00:11:15.699Z,96525.58
2017-09-04T00:13:41.540Z,96521.85
2017-09-04T00:16:07.312Z,96519.02
2017-09-04T00:18:33.042Z,96525.09
2017-09-04T00:20:58.894Z,96524.57
2017-09-04T00:23:24.700Z,96527.87
2017-09-04T00:25:50.452Z,96520.98
2017-09-04T00:28:16.196Z,96531.31
2017-09-04T00:30:41.978Z,96525.69
2017-09-04T00:33:07.779Z,96519.22
2017-09-04T00:35:33.535Z,96522.49
2017-09-04T00:37:59.374Z,96526.85
2017-09-04T00:40:25.168Z,96519.98
2017-09-04T00:42:51.029Z,96518.41
2017-09-04T00:45:16.842Z,96519.58
2017-09-04T00:47:42.658Z,96513.99
2017-09-04T00:50:08.410Z,96515.67
2017-09-04T00:52:34.252Z,96520.01
2017-09-04T00:55:01.177Z,96519.19
2017-09-04T00:57:26.976Z,96518.81
2017-09-04T00:59:52.763Z,96517.78
2017-09-04T01:02:18.619Z,96519.25
2017-09-04T01:04:44.408Z,96520.18
2017-09-04T01:07:10.190Z,96525.28
2017-09-04T01:09:35.943Z,96522.30
2017-09-04T01:12:01.707Z,96515.14
2017-09-04T01:14:27.527Z,96514.53
2017-09-04T01:16:53.294Z,96519.64
2017-09-04T01:19:19.100Z,96521.48
2017-09-04T01:21:44.862Z,96509.87
2017-09-04T01:24:10.631Z,96518.36
2017-09-04T01:26:36.411Z,96518.78
2017-09-04T01:29:02.156Z,96522.38
2017-09-04T01:31:27.939Z,96520.81
2017-09-04T01:33:53.730Z,96518.68
2017-09-04T01:36:19.487Z,96518.42
2017-09-04T01:38:45.299Z,96521.23
2017-09-04T01:41:11.038Z,96514.31
2017-09-04T01:43:36.820Z,96516.44
2017-09-04T01:46:02.587Z,96516.58
2017-09-04T01:48:28.323Z,96508.70
2017-09-04T01:50:54.119Z,96505.19
2017-09-04T01:53:19.870Z,96512.34
2017-09-04T01:55:45.619Z,96508.97
2017-09-04T01:58:11.483Z,96506.45
2017-09-04T02:00:37.243Z,96508.77
2017-09-04T02:03:03.011Z,96501.45
2017-09-04T02:05:28.775Z,96497.80
2017-09-04T02:07:54.579Z,96496.00
2017-09-04T02:10:20.352Z,96486.70
2017-09-04T02:12:46.135Z,96494.70
2017-09-04T02:15:11.883Z,96498.47
2017-09-04T02:17:37.648Z,96499.86
2017-09-04T02:20:03.443Z,96494.37
2017-09-04T02:22:29.192Z,96497.78
2017-09-04T02:24:54.971Z,96497.27
2017-09-04T02:27:20.725Z,96498.47
2017-09-04T02:29:46.492Z,96496.08
2017-09-04T02:32:12.267Z,96490.45
2017-09-04T02:34:38.007Z,96491.81
2017-09-04T02:37:03.766Z,96492.67
2017-09-04T02:39:29.522Z,96494.28
2017-09-04T02:41:55.296Z,96486.80
2017-09-04T02:44:21.067Z,96486.25
2017-09-04T02:46:46.807Z,96487.20
2017-09-04T02:49:12.574Z,96490.02
2017-09-04T02:51:38.367Z,96483.74
2017-09-04T02:54:04.152Z,96487.87
2017-09-04T02:56:29.892Z,96489.59
2017-09-04T02:58:55.647Z,96486.31
2017-09-04T03:01:21.811Z,96481.44
2017-09-04T03:03:47.643Z,96486.38
2017-09-04T03:06:13.391Z,96494.70
2017-09-04T03:08:39.159Z,96493.92
2017-09-04T03:11:04.972Z,96493.85
2017-09-04T03:13:30.716Z,96497.87
2017-09-04T03:15:56.489Z,96493.74
2017-09-04T03:18:22.255Z,96497.96
2017-09-04T03:20:48.063Z,96487.28
2017-09-04T03:23:13.943Z,96480.77
2017-09-04T03:25:39.791Z,96486.01
2017-09-04T03:28:05.572Z,96487.48
2017-09-04T03:30:31.372Z,96489.70
2017-09-04T03:32:57.196Z,96486.58
2017-09-04T03:35:22.992Z,96484.81
2017-09-04T03:37:48.763Z,96488.41
2017-09-04T03:40:14.638Z,96486.11
2017-09-04T03:42:40.416Z,96492.55
2017-09-04T03:45:06.247Z,96488.53
2017-09-04T03:47:32.025Z,96492.02
2017-09-04T03:49:57.849Z,96492.75
2017-09-04T03:52:23.635Z,96493.89
2017-09-04T03:54:49.403Z,96491.48
2017-09-04T03:57:15.332Z,96492.91
2017-09-04T03:59:41.163Z,96494.91
2017-09-04T04:02:06.928Z,96495.73
2017-09-04T04:04:32.782Z,96494.59
2017-09-04T04:06:58.566Z,96501.06
2017-09-04T04:09:24.348Z,96500.34
2017-09-04T04:11:50.123Z,96504.67
2017-09-04T04:14:15.911Z,96504.59
2017-09-04T04:16:41.664Z,96505.17
2017-09-04T04:19:07.483Z,96503.41
2017-09-04T04:21:33.271Z,96505.58
2017-09-04T04:23:59.016Z,96498.72
2017-09-04T04:26:24.779Z,96502.26
2017-09-04T04:28:50.544Z,96507.42
2017-09-04T04:31:16.355Z,96512.13
2017-09-04T04:33:42.172Z,96503.18
2017-09-04T04:36:07.927Z,96504.88
2017-09-04T04:38:33.685Z,96505.00
2017-09-04T04:40:59.426Z,96502.76
2017-09-04T04:43:25.195Z,96510.66
2017-09-04T04:45:50.935Z,96509.11
2017-09-04T04:48:16.719Z,96517.51
2017-09-04T04:50:42.465Z,96510.61
2017-09-04T04:53:08.242Z,96509.53
2017-09-04T04:55:34.035Z,96511.44
2017-09-04T04:57:59.840Z,96514.27
2017-09-04T05:00:25.587Z,96515.09
2017-09-04T05:02:51.403Z,96510.11
2017-09-04T05:05:17.200Z,96515.97
2017-09-04T05:07:42.951Z,96518.23
2017-09-04T05:10:08.726Z,96519.82
2017-09-04T05:12:34.510Z,96523.64
2017-09-04T05:15:00.283Z,96518.29
2017-09-04T05:17:27.077Z,96519.79
2017-09-04T05:19:52.847Z,96524.05
2017-09-04T05:22:18.602Z,96533.45
2017-09-04T05:24:44.490Z,96533.97
2017-09-04T05:27:10.251Z,96535.56
2017-09-04T05:29:35.992Z,96536.45
2017-09-04T05:32:01.851Z,96531.55
2017-09-04T05:34:27.612Z,96539.02
2017-09-04T05:36:53.423Z,96544.00
2017-09-04T05:39:19.187Z,96536.53
2017-09-04T05:41:44.992Z,96542.01
2017-09-04T05:44:10.745Z,96541.77
2017-09-04T05:46:36.490Z,96539.47
2017-09-04T05:49:02.293Z,96541.15
2017-09-04T05:51:28.638Z,96540.70
2017-09-04T05:53:54.429Z,96549.77
2017-09-04T05:56:20.177Z,96547.84
2017-09-04T05:58:45.964Z,96558.87
2017-09-04T06:01:11.719Z,96559.90
2017-09-04T06:03:37.496Z,96558.09
2017-09-04T06:06:03.260Z,96556.36
2017-09-04T06:08:29.060Z,96560.20
2017-09-04T06:10:54.798Z,96566.06
2017-09-04T06:13:20.560Z,96570.75
2017-09-04T06:15:46.351Z,96570.11
2017-09-04T06:18:12.160Z,96567.09
2017-09-04T06:20:38.006Z,96568.16
2017-09-04T06:23:03.847Z,96569.30
2017-09-04T06:25:29.708Z,96568.98
2017-09-04T06:27:55.452Z,96562.26
2017-09-04T06:30:21.203Z,96564.42
2017-09-04T06:32:46.986Z,96566.87
2017-09-04T06:35:12.787Z,96565.47
2017-09-04T06:37:38.527Z,96567.04
2017-09-04T06:40:04.295Z,96566.55
2017-09-04T06:42:30.083Z,96567.94
2017-09-04T06:44:55.844Z,96567.33
2017-09-04T06:47:21.611Z,96569.23
2017-09-04T06:49:47.408Z,96567.31
2017-09-04T06:52:13.163Z,96569.69
2017-09-04T06:54:39.020Z,96572.64
2017-09-04T06:57:04.755Z,96565.52
2017-09-04T06:59:30.491Z,96565.73
2017-09-04T07:01:56.373Z,96570.23
2017-09-04T07:04:22.127Z,96570.72
2017-09-04T07:06:47.878Z,96570.34
2017-09-04T07:09:13.747Z,96577.38
2017-09-04T07:11:39.503Z,96579.27
2017-09-04T07:14:05.271Z,96581.54
2017-09-04T07:16:31.043Z,96579.51
2017-09-04T07:18:56.799Z,96579.09
2017-09-04T07:21:22.593Z,96577.56
2017-09-04T07:23:48.435Z,96574.19
2017-09-04T07:26:14.191Z,96577.04
2017-09-04T07:28:39.970Z,96580.96
2017-09-04T07:31:05.772Z,96581.27
2017-09-04T07:33:31.516Z,96586.41
2017-09-04T07:35:57.254Z,96581.13
2017-09-04T07:38:23.090Z,96584.25
2017-09-04T07:40:48.839Z,96583.31
2017-09-04T07:43:14.580Z,96588.23
2017-09-04T07:45:40.348Z,96587.63
2017-09-04T07:48:06.181Z,96580.18
2017-09-04T07:50:31.980Z,96581.45
2017-09-04T07:52:57.807Z,96581.58
2017-09-04T07:55:23.550Z,96582.88
2017-09-04T07:57:49.303Z,96594.95
2017-09-04T08:00:15.083Z,96586.36
2017-09-04T08:02:40.827Z,96603.77
2017-09-04T08:05:06.618Z,96599.52
2017-09-04T08:07:32.380Z,96598.62
2017-09-04T08:09:58.167Z,96592.75
2017-09-04T08:12:23.944Z,96597.09
2017-09-04T08:14:49.716Z,96598.54
2017-09-04T08:17:15.546Z,96601.69
2017-09-04T08:19:41.299Z,96598.12
2017-09-04T08:22:07.059Z,96602.09
2017-09-04T08:24:32.860Z,96601.56
2017-09-04T08:26:58.614Z,96601.77
2017-09-04T08:29:24.372Z,96604.43
2017-09-04T08:31:50.263Z,96601.32
2017-09-04T08:34:16.035Z,96604.16
2017-09-04T08:36:41.791Z,96600.94
2017-09-04T08:39:07.571Z,96612.73
2017-09-04T08:41:33.311Z,96608.27
2017-09-04T08:43:59.090Z,96606.07
2017-09-04T08:46:24.871Z,96612.74
2017-09-04T08:48:50.623Z,96609.80
2017-09-04T08:51:16.389Z,96614.09
2017-09-04T08:53:42.219Z,96618.13
2017-09-04T08:56:07.975Z,96629.08
2017-09-04T08:58:33.798Z,96627.31
2017-09-04T09:01:00.232Z,96629.61
2017-09-04T09:03:25.998Z,96631.51
2017-09-04T09:05:51.781Z,96629.20
2017-09-04T09:08:17.587Z,96638.22
2017-09-04T09:10:43.520Z,96641.88
2017-09-04T09:13:09.279Z,96635.14
2017-09-04T09:15:35.035Z,96635.35
2017-09-04T09:18:00.940Z,96639.82
2017-09-04T09:20:26.685Z,96638.00
2017-09-04T09:22:52.447Z,96641.23
2017-09-04T09:25:18.236Z,96644.00
2017-09-04T09:27:44.046Z,96652.27
2017-09-04T09:30:09.798Z,96649.21
2017-09-04T09:32:35.567Z,96651.87
2017-09-04T09:35:01.363Z,96658.66
2017-09-04T09:37:27.181Z,96652.69
2017-09-04T09:39:52.951Z,96650.02
2017-09-04T09:42:18.727Z,96656.37
2017-09-04T09:44:44.516Z,96651.44
2017-09-04T09:47:10.323Z,96653.78
2017-09-04T09:49:36.077Z,96653.29
2017-09-04T09:52:01.880Z,96667.33
2017-09-04T09:54:27.671Z,96660.38
2017-09-04T09:56:53.437Z,96652.09
2017-09-04T09:59:19.540Z,96652.46
2017-09-04T10:01:45.319Z,96657.42
2017-09-04T10:04:11.083Z,96662.73
2017-09-04T10:06:37.007Z,96663.88
2017-09-04T10:09:02.784Z,96665.86
2017-09-04T10:11:28.555Z,96674.45
2017-09-04T10:13:54.342Z,96668.32
2017-09-04T10:16:20.105Z,96671.63
2017-09-04T10:18:45.925Z,96669.36
2017-09-04T10:21:11.732Z,96670.70
2017-09-04T10:23:37.508Z,96677.30
2017-09-04T10:26:03.339Z,96679.72
2017-09-04T10:28:29.096Z,96681.94
2017-09-04T10:30:55.051Z,96684.64
2017-09-04T10:33:20.819Z,96680.41
2017-09-04T10:35:46.588Z,96672.68
2017-09-04T10:38:12.380Z,96669.30
2017-09-04T10:40:38.146Z,96666.89
2017-09-04T10:43:03.942Z,96673.35
2017-09-04T10:45:29.749Z,96670.04
2017-09-04T10:47:55.520Z,96675.61
2017-09-04T10:50:21.297Z,96675.73
2017-09-04T10:52:47.215Z,96671.27
2017-09-04T10:55:13.000Z,96676.84
2017-09-04T10:57:38.800Z,96677.70
2017-09-04T11:00:04.583Z,96681.61
2017-09-04T11:02:30.379Z,96677.86
2017-09-04T11:04:56.195Z,96676.82
2017-09-04T11:07:21.978Z,96681.09
2017-09-04T11:09:47.755Z,96684.05
2017-09-04T11:12:13.557Z,96676.84
2017-09-04T11:14:39.328Z,96684.54
2017-09-04T11:17:05.138Z,96688.70
2017-09-04T11:19:30.899Z,96693.95
2017-09-04T11:21:56.703Z,96689.02
2017-09-04T11:24:22.531Z,96690.25
2017-09-04T11:26:48.316Z,96692.37
2017-09-04T11:29:14.095Z,96689.66
2017-09-04T11:31:39.904Z,96687.50
2017-09-04T11:34:05.687Z,96689.22
2017-09-04T11:36:31.503Z,96685.46
2017-09-04T11:38:57.267Z,96693.37
2017-09-04T11:41:23.031Z,96698.08
2017-09-04T11:43:48.825Z,96686.95
2017-09-04T11:46:14.587Z,96686.75
2017-09-04T11:48:40.387Z,96697.66
2017-09-04T11:51:06.175Z,96701.41
2017-09-04T11:53:31.962Z,96706.57
2017-09-04T11:55:57.734Z,96697.02
2017-09-04T11:58:23.531Z,96709.27
2017-09-04T12:00:49.466Z,96706.69
2017-09-04T12:03:15.294Z,96717.08
2017-09-04T12:05:41.048Z,96715.48
2017-09-04T12:08:06.886Z,96715.42
2017-09-04T12:10:32.699Z,96714.23
2017-09-04T12:12:58.459Z,96721.97
2017-09-04T12:15:24.231Z,96714.90
2017-09-04T12:17:50.091Z,96714.17
2017-09-04T12:20:15.992Z,96715.87
2017-09-04T12:22:41.823Z,96716.91
2017-09-04T12:25:07.661Z,96716.85
2017-09-04T12:27:33.447Z,96721.45
2017-09-04T12:29:59.265Z,96721.52
2017-09-04T12:32:25.240Z,96728.67
2017-09-04T12:34:51.115Z,96735.39
2017-09-04T12:37:16.880Z,96733.89
2017-09-04T12:39:42.683Z,96738.73
2017-09-04T12:42:08.440Z,96726.92
2017-09-04T12:44:34.203Z,96722.04
2017-09-04T12:46:59.999Z,96712.74
2017-09-04T12:49:25.781Z,96712.52
2017-09-04T12:51:51.579Z,96710.59
2017-09-04T12:54:17.396Z,96704.86
2017-09-04T12:56:43.184Z,96713.31
2017-09-04T12:59:08.948Z,96712.66
2017-09-04T13:01:34.717Z,96707.38
2017-09-04T13:04:00.518Z,96709.33
2017-09-04T13:06:26.288Z,96700.42
2017-09-04T13:08:52.048Z,96698.97
2017-09-04T13:11:20.615Z,96697.91
2017-09-04T13:16:50.174Z,96698.36
2017-09-04T13:19:21.952Z,96695.75
2017-09-04T13:21:54.487Z,96699.27
2017-09-04T13:24:26.393Z,96698.83
2017-09-04T13:26:58.283Z,96700.30
2017-09-04T13:29:30.349Z,96694.36
2017-09-04T13:31:56.167Z,96699.60
2017-09-04T13:34:28.004Z,96698.91
2017-09-04T13:36:59.879Z,96707.87
2017-09-04T13:39:31.876Z,96706.30
2017-09-04T13:42:00.648Z,96705.95
2017-09-04T13:44:30.279Z,96709.36
2017-09-04T13:50:00.622Z,96715.34
2017-09-04T13:52:32.697Z,96717.02
2017-09-04T13:58:15.479Z,96715.63
2017-09-04T14:00:42.176Z,96720.67
2017-09-04T14:03:14.251Z,96717.00
2017-09-04T14:05:43.923Z,96715.78
2017-09-04T14:08:16.000Z,96723.91
2017-09-04T14:10:47.792Z,96717.52
2017-09-04T14:13:18.449Z,96711.83
2017-09-04T14:18:41.951Z,96717.32
2017-09-04T14:21:07.857Z,96718.30
2017-09-04T14:23:33.887Z,96714.61
2017-09-04T14:25:59.715Z,96712.56
2017-09-04T14:28:25.514Z,96712.28
2017-09-04T14:30:51.273Z,96708.75
2017-09-04T14:33:17.079Z,96714.75
2017-09-04T14:35:43.027Z,96716.58
2017-09-04T14:38:08.875Z,96718.44
2017-09-04T14:40:34.678Z,96727.17
2017-09-04T14:43:01.367Z,96722.86
2017-09-04T14:45:29.135Z,96722.63
2017-09-04T14:47:55.800Z,96717.63
2017-09-04T14:50:21.616Z,96725.33
2017-09-04T14:52:47.433Z,96725.36
2017-09-04T14:55:13.252Z,96732.20
2017-09-04T14:57:39.103Z,96731.23
2017-09-04T15:00:04.900Z,96731.95
2017-09-04T15:02:30.700Z,96737.30
2017-09-04T15:04:56.468Z,96729.92
2017-09-04T15:07:22.321Z,96734.89
2017-09-04T15:09:48.169Z,96738.95
2017-09-04T15:12:13.928Z,96743.95
2017-09-04T15:14:39.695Z,96746.78
2017-09-04T15:17:05.496Z,96745.20
2017-09-04T15:19:31.317Z,96752.63
2017-09-04T15:21:57.403Z,96754.21
2017-09-04T15:24:23.260Z,96754.03
2017-09-04T15:26:49.025Z,96754.41
2017-09-04T15:29:14.823Z,96749.55
2017-09-04T15:31:40.635Z,96752.23
2017-09-04T15:34:06.399Z,96755.83
2017-09-04T15:36:32.227Z,96749.52
2017-09-04T15:38:58.019Z,96750.72
2017-09-04T15:41:24.679Z,96755.37
2017-09-04T15:43:50.503Z,96757.64
2017-09-04T15:46:16.271Z,96761.38
2017-09-04T15:48:42.054Z,96763.27
2017-09-04T15:51:07.864Z,96770.34
2017-09-04T15:53:33.651Z,96771.86
2017-09-04T15:55:59.439Z,96772.17
2017-09-04T15:58:25.291Z,96773.03
2017-09-04T16:00:51.063Z,96778.66
2017-09-04T16:03:16.872Z,96780.47
2017-09-04T16:05:43.571Z,96778.04
2017-09-04T16:08:10.275Z,96780.72
2017-09-04T16:10:36.068Z,96787.73
2017-09-04T16:13:05.894Z,96784.33
2017-09-04T16:15:37.931Z,96788.22
2017-09-04T16:18:03.717Z,96788.22
2017-09-04T16:20:30.475Z,96787.27
2017-09-04T16:22:57.128Z,96793.38
2017-09-04T16:28:19.675Z,96787.20
2017-09-04T16:30:51.500Z,96786.84
2017-09-04T16:33:18.325Z,96794.43
2017-09-04T16:35:45.767Z,96796.32
2017-09-04T16:38:12.459Z,96794.07
2017-09-04T16:40:39.153Z,96792.26
2017-09-04T16:46:09.412Z,96788.48
2017-09-04T16:48:38.063Z,96792.37
2017-09-04T16:54:04.463Z,96795.28
2017-09-04T16:56:31.153Z,96801.11
2017-09-04T16:58:56.935Z,96799.03
2017-09-04T17:01:22.792Z,96800.36
2017-09-04T17:03:48.567Z,96798.50
2017-09-04T17:06:14.363Z,96798.20
2017-09-04T17:08:40.163Z,96800.78
2017-09-04T17:11:06.903Z,96803.40
2017-09-04T17:13:32.710Z,96796.48
2017-09-04T17:16:01.475Z,96805.30
2017-09-04T17:18:30.187Z,96800.23
2017-09-04T17:20:55.964Z,96800.84
2017-09-04T17:23:21.731Z,96798.91
2017-09-04T17:25:47.523Z,96803.72
2017-09-04T17:28:13.407Z,96810.69
2017-09-04T17:30:39.197Z,96804.09
2017-09-04T17:33:05.017Z,96808.27
2017-09-04T17:35:31.686Z,96814.14
2017-09-04T17:37:57.511Z,96818.38
2017-09-04T17:40:23.294Z,96821.97
2017-09-04T17:42:49.107Z,96828.83
2017-09-04T17:45:14.991Z,96824.19
2017-09-04T17:47:40.815Z,96833.57
2017-09-04T17:50:06.605Z,96831.08
2017-09-04T17:52:32.460Z,96839.60
2017-09-04T17:54:58.268Z,96840.03
2017-09-04T17:57:24.041Z,96848.56
2017-09-04T17:59:49.812Z,96846.85
2017-09-04T18:02:15.700Z,96845.17
2017-09-04T18:04:41.492Z,96843.11
2017-09-04T18:07:07.273Z,96842.28
2017-09-04T18:09:33.192Z,96850.45
2017-09-04T18:11:58.965Z,96848.91
2017-09-04T18:14:24.754Z,96849.06
2017-09-04T18:16:50.643Z,96852.39
2017-09-04T18:19:16.422Z,96851.38
2017-09-04T18:21:42.189Z,96861.09
2017-09-04T18:24:08.016Z,96870.06
2017-09-04T18:26:33.766Z,96864.06
2017-09-04T18:28:59.583Z,96878.30
2017-09-04T18:31:25.359Z,96879.77
2017-09-04T18:33:51.215Z,96883.94
2017-09-04T18:36:17.000Z,96879.17
2017-09-04T18:38:42.799Z,96880.38
2017-09-04T18:41:08.731Z,96886.83
2017-09-04T18:43:34.504Z,96894.17
2017-09-04T18:46:00.275Z,96884.66
2017-09-04T18:48:26.084Z,96891.44
2017-09-04T18:50:51.875Z,96896.33
2017-09-04T18:53:17.679Z,96904.70
2017-09-04T18:55:43.500Z,96913.52
2017-09-04T18:58:09.323Z,96913.72
2017-09-04T19:00:35.136Z,96922.37
2017-09-04T19:03:00.891Z,96923.58
2017-09-04T19:05:26.710Z,96927.63
2017-09-04T19:07:52.452Z,96929.25
2017-09-04T19:10:18.239Z,96935.16
2017-09-04T19:12:43.994Z,96934.27
2017-09-04T19:15:09.819Z,96936.06
2017-09-04T19:17:35.695Z,96931.89
2017-09-04T19:20:01.480Z,96928.23
2017-09-04T19:22:27.267Z,96931.63
2017-09-04T19:24:53.059Z,96929.01
2017-09-04T19:27:18.843Z,96929.28
2017-09-04T19:29:44.637Z,96937.42
2017-09-04T19:32:10.400Z,96927.65
2017-09-04T19:34:36.195Z,96931.05
2017-09-04T19:37:02.024Z,96929.25
2017-09-04T19:39:27.802Z,96928.84
2017-09-04T19:41:53.591Z,96923.52
2017-09-04T19:44:19.336Z,96928.77
2017-09-04T19:46:45.179Z,96926.63
2017-09-04T19:49:11.034Z,96925.21
2017-09-04T19:51:36.815Z,96933.54
2017-09-04T19:54:02.722Z,96942.93
2017-09-04T19:56:28.496Z,96938.44
2017-09-04T19:58:54.294Z,96934.45
2017-09-04T20:01:20.047Z,96936.98
2017-09-04T20:03:45.856Z,96935.02
2017-09-04T20:06:11.664Z,96931.88
2017-09-04T20:08:37.450Z,96927.20
2017-09-04T20:11:03.286Z,96934.77
2017-09-04T20:13:29.060Z,96923.05
2017-09-04T20:15:54.874Z,96927.05
2017-09-04T20:18:20.638Z,96939.23
2017-09-04T20:20:46.409Z,96935.92
2017-09-04T20:23:12.217Z,96945.12
2017-09-04T20:25:37.993Z,96942.50
2017-09-04T20:28:03.807Z,96942.93
2017-09-04T20:30:29.567Z,96945.97
2017-09-04T20:32:55.389Z,96945.36
2017-09-04T20:35:21.168Z,96946.44
2017-09-04T20:37:46.936Z,96947.66
2017-09-04T20:40:12.740Z,96955.41
2017-09-04T20:42:38.490Z,96955.03
2017-09-04T20:45:04.272Z,96957.36
2017-09-04T20:47:30.061Z,96952.91
2017-09-04T20:49:55.871Z,96952.59
2017-09-04T20:52:21.631Z,96958.94
2017-09-04T20:54:47.480Z,96961.53
2017-09-04T20:57:13.273Z,96961.72
2017-09-04T20:59:39.047Z,96957.92
2017-09-04T21:02:04.858Z,96966.81
2017-09-04T21:04:30.635Z,96967.69
2017-09-04T21:06:56.388Z,96973.89
2017-09-04T21:09:22.951Z,96969.32
2017-09-04T21:11:48.726Z,96975.22
2017-09-04T21:14:14.495Z,96972.72
2017-09-04T21:16:40.292Z,96969.78
2017-09-04T21:19:06.156Z,96970.91
2017-09-04T21:21:31.934Z,96970.74
2017-09-04T21:23:57.831Z,96980.30
2017-09-04T21:26:23.598Z,96979.51
2017-09-04T21:28:49.427Z,96985.05
2017-09-04T21:31:15.192Z,96986.72
2017-09-04T21:33:40.981Z,96983.77
2017-09-04T21:36:06.788Z,96981.06
2017-09-04T21:38:32.551Z,96973.09
2017-09-04T21:40:58.355Z,96985.30
2017-09-04T21:43:24.139Z,96989.31
2017-09-04T21:45:49.901Z,96986.30
2017-09-04T21:48:15.767Z,96988.28
2017-09-04T21:50:41.528Z,96980.47
2017-09-04T21:53:07.287Z,96982.81
2017-09-04T21:55:33.140Z,96989.41
2017-09-04T21:57:58.902Z,96981.92
2017-09-04T22:00:24.688Z,96988.17
2017-09-04T22:02:50.499Z,96985.47
2017-09-04T22:05:16.273Z,96989.63
2017-09-04T22:07:42.012Z,96987.92
2017-09-04T22:10:07.791Z,96988.28
2017-09-04T22:12:33.540Z,96986.30
2017-09-04T22:14:59.346Z,96991.09
2017-09-04T22:17:25.102Z,96987.93
2017-09-04T22:19:51.726Z,96991.02
2017-09-04T22:22:17.477Z,96981.19
2017-09-04T22:24:43.270Z,96986.44
2017-09-04T22:27:09.067Z,96982.14
2017-09-04T22:29:34.844Z,96978.60
2017-09-04T22:32:00.714Z,96977.00
2017-09-04T22:34:26.564Z,96975.37
2017-09-04T22:36:52.459Z,96972.82
2017-09-04T22:39:18.253Z,96976.51
2017-09-04T22:41:44.005Z,96968.70
2017-09-04T22:44:09.807Z,96976.93
2017-09-04T22:46:35.613Z,96975.55
2017-09-04T22:49:01.375Z,96980.73
2017-09-04T22:51:27.856Z,96985.34
2017-09-04T22:53:53.681Z,96987.89
2017-09-04T22:56:19.447Z,96989.80
2017-09-04T22:58:47.114Z,96997.25
2017-09-04T23:01:12.915Z,97002.78
2017-09-04T23:03:38.795Z,96997.00
2017-09-04T23:06:04.563Z,97001.40
2017-09-04T23:08:30.357Z,96999.91
2017-09-04T23:10:56.145Z,97008.41
2017-09-04T23:13:21.954Z,97015.23
2017-09-04T23:15:47.730Z,97014.34
2017-09-04T23:18:13.492Z,97022.13
2017-09-04T23:20:39.390Z,97024.22
2017-09-04T23:23:05.162Z,97020.18
2017-09-04T23:25:30.981Z,97016.57
2017-09-04T23:27:56.771Z,97020.64
2017-09-04T23:30:22.584Z,97026.06
2017-09-04T23:32:48.368Z,97022.53
2017-09-04T23:35:14.140Z,97012.91
2017-09-04T23:37:39.923Z,97016.16
2017-09-04T23:40:05.691Z,97013.73
2017-09-04T23:42:31.513Z,97012.66
2017-09-04T23:44:57.259Z,97010.98
2017-09-04T23:47:23.072Z,97012.98
2017-09-04T23:49:48.827Z,97016.91
2017-09-04T23:52:14.607Z,97016.55
2017-09-04T23:54:40.390Z,97017.93
2017-09-04T23:57:06.175Z,97015.24
2017-09-04T23:59:31.940Z,97014.88
